createdAt,value
2023-05-19T00:02:21.075Z,88.52
2023-05-19T00:04:48.526Z,87.98
2023-05-19T00:07:19.332Z,87.63
2023-05-19T00:09:46.465Z,87.70
2023-05-19T00:12:13.869Z,87.27
2023-05-19T00:14:41.062Z,87.72
2023-05-19T00:17:08.303Z,87.69
2023-05-19T00:19:35.105Z,87.83
2023-05-19T00:22:01.845Z,87.52
2023-05-19T00:24:28.969Z,87.79
2023-05-19T00:26:55.925Z,87.84
2023-05-19T00:29:22.746Z,87.95
2023-05-19T00:31:49.809Z,87.98
2023-05-19T00:34:16.669Z,87.66
2023-05-19T00:36:43.639Z,87.74
2023-05-19T00:39:13.896Z,87.76
2023-05-19T00:41:40.739Z,87.59
2023-05-19T00:44:07.758Z,87.66
2023-05-19T00:46:34.587Z,87.51
2023-05-19T00:49:01.507Z,87.20
2023-05-19T00:51:29.682Z,87.37
2023-05-19T00:53:57.829Z,87.40
2023-05-19T00:56:26.703Z,87.07
2023-05-19T00:58:54.842Z,87.27
2023-05-19T01:01:22.813Z,87.38
2023-05-19T01:03:49.965Z,86.99
2023-05-19T01:06:19.299Z,86.63
2023-05-19T01:08:46.575Z,87.45
2023-05-19T01:11:13.535Z,87.22
2023-05-19T01:13:42.103Z,87.83
2023-05-19T01:16:12.765Z,87.56
2023-05-19T01:19:01.768Z,87.52
2023-05-19T01:21:44.514Z,87.36
2023-05-19T01:24:39.503Z,87.72
2023-05-19T01:27:42.047Z,87.43
2023-05-19T01:30:30.830Z,87.67
2023-05-19T01:33:02.119Z,87.86
2023-05-19T01:35:30.879Z,88.04
2023-05-19T01:38:00.799Z,87.50
2023-05-19T01:40:29.116Z,87.65
2023-05-19T01:42:59.108Z,87.90
2023-05-19T01:45:28.593Z,88.24
2023-05-19T01:47:58.298Z,88.28
2023-05-19T01:50:25.475Z,88.22
2023-05-19T01:52:52.740Z,88.10
2023-05-19T01:55:21.301Z,87.86
2023-05-19T01:58:09.908Z,88.43
2023-05-19T02:00:54.254Z,88.20
2023-05-19T02:03:38.925Z,88.27
2023-05-19T02:06:31.214Z,88.35
2023-05-19T02:09:04.381Z,88.45
2023-05-19T02:11:38.765Z,88.31
2023-05-19T02:14:30.670Z,87.99
2023-05-19T02:16:59.346Z,88.08
2023-05-19T02:19:34.574Z,88.31
2023-05-19T02:22:01.465Z,88.58
2023-05-19T02:24:28.216Z,88.42
2023-05-19T02:26:55.005Z,88.42
2023-05-19T02:29:21.993Z,88.24
2023-05-19T02:31:50.637Z,88.51
2023-05-19T02:34:19.129Z,88.25
2023-05-19T02:36:45.903Z,88.78
2023-05-19T02:39:12.983Z,88.46
2023-05-19T02:41:39.842Z,88.97
2023-05-19T02:44:07.596Z,88.82
2023-05-19T02:46:34.750Z,88.65
2023-05-19T02:49:01.530Z,88.47
2023-05-19T02:51:28.312Z,88.74
2023-05-19T02:53:55.106Z,88.24
2023-05-19T02:56:22.131Z,87.04
2023-05-19T02:58:48.921Z,88.03
2023-05-19T03:01:16.673Z,88.96
2023-05-19T03:03:43.746Z,89.43
2023-05-19T03:06:10.595Z,89.33
2023-05-19T03:08:38.761Z,89.64
2023-05-19T03:11:06.906Z,89.72
2023-05-19T03:13:33.744Z,89.35
2023-05-19T03:16:00.699Z,89.44
2023-05-19T03:18:27.821Z,88.88
2023-05-19T03:20:54.701Z,89.53
2023-05-19T03:23:22.524Z,89.72
2023-05-19T03:25:49.407Z,89.54
2023-05-19T03:28:17.233Z,89.57
2023-05-19T03:30:44.238Z,89.41
2023-05-19T03:33:14.815Z,89.95
2023-05-19T03:35:42.331Z,90.06
2023-05-19T03:38:09.131Z,89.87
2023-05-19T03:40:36.290Z,90.13
2023-05-19T03:43:08.727Z,90.36
2023-05-19T03:45:43.196Z,90.16
2023-05-19T03:48:30.059Z,89.98
2023-05-19T03:51:17.855Z,89.67
2023-05-19T03:53:47.059Z,89.38
2023-05-19T03:56:14.059Z,89.43
2023-05-19T03:58:44.828Z,89.64
2023-05-19T04:01:11.688Z,89.86
2023-05-19T04:03:38.497Z,88.79
2023-05-19T04:06:05.518Z,89.47
2023-05-19T04:08:32.374Z,89.44
2023-05-19T04:10:59.413Z,89.19
2023-05-19T04:13:26.273Z,89.53
2023-05-19T04:15:53.184Z,89.87
2023-05-19T04:18:19.984Z,89.75
2023-05-19T04:20:46.854Z,89.21
2023-05-19T04:23:13.590Z,89.69
2023-05-19T04:25:41.870Z,89.69
2023-05-19T04:28:08.631Z,89.34
2023-05-19T04:30:36.776Z,89.84
2023-05-19T04:33:04.845Z,90.14
2023-05-19T04:35:32.107Z,90.73
2023-05-19T04:38:01.691Z,90.85
2023-05-19T04:40:32.091Z,91.37
2023-05-19T04:42:59.154Z,91.50
2023-05-19T04:45:26.288Z,91.16
2023-05-19T04:47:58.273Z,91.59
2023-05-19T04:50:25.479Z,91.54
2023-05-19T04:52:52.844Z,91.39
2023-05-19T04:55:19.839Z,91.89
2023-05-19T04:57:48.372Z,91.35
2023-05-19T05:00:15.546Z,91.65
2023-05-19T05:03:05.113Z,91.92
2023-05-19T05:05:32.913Z,92.28
2023-05-19T05:08:00.293Z,92.16
2023-05-19T05:10:30.818Z,92.18
2023-05-19T05:12:58.068Z,92.27
2023-05-19T05:15:25.234Z,91.75
2023-05-19T05:17:52.615Z,91.11
2023-05-19T05:20:20.987Z,91.09
2023-05-19T05:22:48.271Z,91.71
2023-05-19T05:25:16.479Z,91.78
2023-05-19T05:27:43.950Z,92.03
2023-05-19T05:30:11.589Z,91.96
2023-05-19T05:32:38.828Z,92.15
2023-05-19T05:35:12.190Z,92.18
2023-05-19T05:37:39.923Z,92.40
2023-05-19T05:40:07.369Z,92.28
2023-05-19T05:42:35.164Z,92.21
2023-05-19T05:45:02.830Z,91.90
2023-05-19T05:47:30.030Z,91.71
2023-05-19T05:49:57.238Z,91.11
2023-05-19T05:52:30.230Z,91.37
2023-05-19T05:54:58.209Z,91.24
2023-05-19T05:57:25.140Z,91.68
2023-05-19T05:59:51.925Z,91.27
2023-05-19T06:02:19.043Z,91.32
2023-05-19T06:04:46.130Z,91.38
2023-05-19T06:07:12.904Z,91.31
2023-05-19T06:09:39.717Z,89.81
2023-05-19T06:12:08.803Z,89.03
2023-05-19T06:14:40.913Z,89.07
2023-05-19T06:17:42.945Z,88.74
2023-05-19T06:20:10.499Z,88.95
2023-05-19T06:22:37.399Z,89.89
2023-05-19T06:25:06.095Z,90.25
2023-05-19T06:27:34.878Z,89.57
2023-05-19T06:30:03.291Z,90.76
2023-05-19T06:32:35.798Z,90.61
2023-05-19T06:35:02.663Z,91.46
2023-05-19T06:37:30.150Z,91.75
2023-05-19T06:39:57.173Z,92.11
2023-05-19T06:42:25.484Z,92.41
2023-05-19T06:45:07.680Z,92.61
2023-05-19T06:47:34.635Z,92.33
2023-05-19T06:50:02.071Z,91.93
2023-05-19T06:52:32.938Z,92.06
2023-05-19T06:55:01.773Z,92.05
2023-05-19T06:57:30.472Z,92.12
2023-05-19T06:59:57.787Z,91.66
2023-05-19T07:02:26.178Z,92.11
2023-05-19T07:04:54.103Z,91.99
2023-05-19T07:07:22.634Z,92.02
2023-05-19T07:09:50.629Z,91.31
2023-05-19T07:12:18.153Z,91.59
2023-05-19T07:14:46.282Z,90.84
2023-05-19T07:17:13.680Z,88.31
2023-05-19T07:19:43.958Z,89.31
2023-05-19T07:22:10.943Z,89.53
2023-05-19T07:24:37.767Z,89.40
2023-05-19T07:27:05.401Z,90.45
2023-05-19T07:29:32.352Z,91.19
2023-05-19T07:31:59.267Z,91.41
2023-05-19T07:34:26.038Z,91.12
2023-05-19T07:36:52.950Z,91.06
2023-05-19T07:39:20.068Z,91.43
2023-05-19T07:41:52.713Z,91.14
2023-05-19T07:44:19.590Z,91.26
2023-05-19T07:46:46.593Z,91.18
2023-05-19T07:49:13.788Z,90.90
2023-05-19T07:51:41.908Z,89.59
2023-05-19T07:54:08.976Z,89.88
2023-05-19T07:56:36.022Z,90.68
2023-05-19T07:59:04.064Z,89.07
2023-05-19T08:01:32.050Z,88.51
2023-05-19T08:03:58.875Z,89.62
2023-05-19T08:06:25.829Z,91.07
2023-05-19T08:08:54.314Z,90.68
2023-05-19T08:11:21.652Z,89.94
2023-05-19T08:13:51.834Z,89.68
2023-05-19T08:16:19.005Z,88.82
2023-05-19T08:18:46.186Z,90.35
2023-05-19T08:21:13.044Z,91.25
2023-05-19T08:23:39.813Z,91.18
2023-05-19T08:26:06.591Z,91.88
2023-05-19T08:28:33.368Z,92.06
2023-05-19T08:31:00.218Z,92.27
2023-05-19T08:33:26.980Z,91.71
2023-05-19T08:35:55.438Z,91.93
2023-05-19T08:38:22.243Z,90.69
2023-05-19T08:40:49.085Z,90.33
2023-05-19T08:43:15.913Z,90.19
2023-05-19T08:45:46.511Z,88.22
2023-05-19T08:48:14.727Z,90.36
2023-05-19T08:50:47.456Z,87.34
2023-05-19T08:53:33.119Z,88.33
2023-05-19T08:56:11.185Z,88.08
2023-05-19T08:58:44.059Z,88.29
2023-05-19T09:01:14.871Z,88.68
2023-05-19T09:03:43.272Z,89.43
2023-05-19T09:06:13.901Z,90.07
2023-05-19T09:08:42.300Z,90.46
2023-05-19T09:11:10.321Z,90.04
2023-05-19T09:13:37.261Z,90.14
2023-05-19T09:16:04.536Z,91.07
2023-05-19T09:18:32.002Z,88.09
2023-05-19T09:21:00.706Z,89.56
2023-05-19T09:23:29.727Z,90.32
2023-05-19T09:25:57.406Z,90.78
2023-05-19T09:28:30.653Z,90.03
2023-05-19T09:31:02.305Z,87.54
2023-05-19T09:33:29.737Z,87.97
2023-05-19T09:35:57.131Z,88.38
2023-05-19T09:38:27.764Z,89.23
2023-05-19T09:40:57.805Z,89.81
2023-05-19T09:43:25.259Z,90.19
2023-05-19T09:46:08.451Z,86.06
2023-05-19T09:48:36.595Z,88.25
2023-05-19T09:51:05.381Z,89.04
2023-05-19T09:53:34.946Z,89.07
2023-05-19T09:56:03.683Z,88.69
2023-05-19T09:58:37.517Z,87.19
2023-05-19T10:01:05.284Z,87.95
2023-05-19T10:03:33.593Z,87.77
2023-05-19T10:06:05.526Z,88.47
2023-05-19T10:08:33.866Z,87.11
2023-05-19T10:11:01.110Z,89.42
2023-05-19T10:13:29.892Z,88.71
2023-05-19T10:15:59.718Z,88.07
2023-05-19T10:18:30.152Z,85.18
2023-05-19T10:20:57.984Z,85.10
2023-05-19T10:23:25.566Z,86.58
2023-05-19T10:25:56.657Z,88.41
2023-05-19T10:28:28.328Z,88.77
2023-05-19T10:31:00.544Z,88.77
2023-05-19T10:33:53.031Z,89.16
2023-05-19T10:36:39.356Z,89.25
2023-05-19T10:39:13.317Z,90.77
2023-05-19T10:42:11.381Z,90.54
2023-05-19T10:44:53.444Z,89.88
2023-05-19T10:47:25.279Z,88.96
2023-05-19T10:49:56.007Z,89.43
2023-05-19T10:52:26.096Z,88.16
2023-05-19T10:54:54.794Z,87.78
2023-05-19T10:57:28.523Z,86.22
2023-05-19T10:59:56.389Z,87.37
2023-05-19T11:02:44.235Z,85.83
2023-05-19T11:05:18.214Z,86.34
2023-05-19T11:07:57.050Z,86.69
2023-05-19T11:10:25.001Z,86.69
2023-05-19T11:12:52.386Z,84.22
2023-05-19T11:15:26.055Z,81.83
2023-05-19T11:17:53.460Z,84.15
2023-05-19T11:20:23.707Z,85.37
2023-05-19T11:23:14.704Z,85.88
2023-05-19T11:25:49.351Z,87.11
2023-05-19T11:28:19.930Z,82.89
2023-05-19T11:30:52.446Z,82.42
2023-05-19T11:33:27.300Z,84.09
2023-05-19T11:35:59.711Z,82.33
2023-05-19T11:38:28.640Z,83.23
2023-05-19T11:40:56.691Z,81.86
2023-05-19T11:43:27.047Z,83.57
2023-05-19T11:45:55.132Z,83.39
2023-05-19T11:48:22.673Z,84.14
2023-05-19T11:50:51.048Z,85.90
2023-05-19T11:53:19.624Z,83.55
2023-05-19T11:55:47.952Z,85.02
2023-05-19T11:58:15.429Z,86.10
2023-05-19T12:00:45.996Z,86.27
2023-05-19T12:03:13.380Z,87.52
2023-05-19T12:05:48.924Z,87.66
2023-05-19T12:08:19.094Z,87.86
2023-05-19T12:10:50.783Z,87.78
2023-05-19T12:13:17.745Z,87.54
2023-05-19T12:15:44.658Z,88.22
2023-05-19T12:18:11.774Z,86.74
2023-05-19T12:20:39.408Z,86.64
2023-05-19T12:23:06.671Z,86.65
2023-05-19T12:25:34.231Z,86.00
2023-05-19T12:28:05.116Z,86.71
2023-05-19T12:30:33.621Z,86.72
2023-05-19T12:33:02.845Z,87.08
2023-05-19T12:35:32.390Z,87.09
2023-05-19T12:38:08.925Z,86.55
2023-05-19T12:40:37.563Z,85.79
2023-05-19T12:43:05.745Z,86.19
2023-05-19T12:45:37.339Z,86.38
2023-05-19T12:48:16.281Z,86.88
2023-05-19T12:50:45.261Z,86.91
2023-05-19T12:53:13.079Z,87.15
2023-05-19T12:55:44.731Z,87.23
2023-05-19T12:58:13.225Z,87.58
2023-05-19T13:00:43.759Z,87.65
2023-05-19T13:03:17.630Z,88.01
2023-05-19T13:05:49.578Z,86.28
2023-05-19T13:08:21.770Z,87.19
2023-05-19T13:10:49.860Z,88.22
2023-05-19T13:13:17.054Z,85.98
2023-05-19T13:15:46.050Z,84.75
2023-05-19T13:18:13.860Z,86.18
2023-05-19T13:20:43.651Z,86.32
2023-05-19T13:23:11.658Z,87.74
2023-05-19T13:25:38.827Z,87.36
2023-05-19T13:28:06.099Z,88.46
2023-05-19T13:30:35.030Z,87.70
2023-05-19T13:33:02.679Z,88.44
2023-05-19T13:35:29.980Z,88.44
2023-05-19T13:37:56.849Z,88.79
2023-05-19T13:40:24.256Z,88.90
2023-05-19T13:42:51.965Z,88.87
2023-05-19T13:45:18.722Z,87.82
2023-05-19T13:47:45.715Z,86.42
2023-05-19T13:50:12.830Z,86.23
2023-05-19T13:52:39.752Z,87.30
2023-05-19T13:55:07.733Z,84.67
2023-05-19T13:57:35.433Z,86.75
2023-05-19T14:00:03.932Z,84.30
2023-05-19T14:02:40.826Z,86.29
2023-05-19T14:05:08.689Z,85.13
2023-05-19T14:07:36.036Z,84.88
2023-05-19T14:10:05.668Z,84.51
2023-05-19T14:12:41.607Z,85.73
2023-05-19T14:15:19.723Z,84.73
2023-05-19T14:17:47.229Z,84.87
2023-05-19T14:20:14.351Z,85.47
2023-05-19T14:22:41.207Z,86.37
2023-05-19T14:25:08.457Z,85.22
2023-05-19T14:27:35.376Z,85.65
2023-05-19T14:30:02.392Z,85.08
2023-05-19T14:32:30.522Z,85.59
2023-05-19T14:34:57.582Z,85.95
2023-05-19T14:37:27.152Z,86.03
2023-05-19T14:39:53.993Z,86.84
2023-05-19T14:42:20.770Z,84.68
2023-05-19T14:44:47.749Z,84.66
2023-05-19T14:47:14.700Z,85.47
2023-05-19T14:49:41.730Z,83.23
2023-05-19T14:52:08.565Z,84.87
2023-05-19T14:54:35.424Z,83.56
2023-05-19T14:57:03.051Z,85.05
2023-05-19T14:59:29.922Z,83.12
2023-05-19T15:01:56.698Z,84.94
2023-05-19T15:04:23.649Z,85.95
2023-05-19T15:07:02.046Z,86.22
2023-05-19T15:09:36.491Z,86.13
2023-05-19T15:12:03.522Z,87.10
2023-05-19T15:14:31.285Z,85.79
2023-05-19T15:16:58.787Z,84.16
2023-05-19T15:19:26.170Z,84.73
2023-05-19T15:21:53.195Z,84.10
2023-05-19T15:24:20.067Z,84.62
2023-05-19T15:26:47.430Z,85.30
2023-05-19T15:29:14.514Z,85.37
2023-05-19T15:31:41.646Z,85.53
2023-05-19T15:34:08.856Z,85.86
2023-05-19T15:36:35.646Z,86.01
2023-05-19T15:39:03.896Z,86.50
2023-05-19T15:41:30.779Z,87.29
2023-05-19T15:44:00.215Z,86.30
2023-05-19T15:46:27.407Z,87.16
2023-05-19T15:48:54.349Z,87.40
2023-05-19T15:51:22.790Z,88.26
2023-05-19T15:53:54.384Z,88.60
2023-05-19T15:56:26.872Z,86.82
2023-05-19T15:58:53.856Z,87.55
2023-05-19T16:01:21.724Z,88.42
2023-05-19T16:03:48.782Z,88.85
2023-05-19T16:06:15.973Z,89.99
2023-05-19T16:08:42.927Z,89.83
2023-05-19T16:11:09.739Z,90.48
2023-05-19T16:13:36.613Z,89.71
2023-05-19T16:16:03.805Z,88.59
2023-05-19T16:18:30.876Z,89.40
2023-05-19T16:20:57.686Z,90.13
2023-05-19T16:23:25.302Z,91.32
2023-05-19T16:25:52.405Z,90.72
2023-05-19T16:28:19.593Z,90.70
2023-05-19T16:30:46.666Z,90.11
2023-05-19T16:33:13.681Z,89.97
2023-05-19T16:35:40.678Z,90.13
2023-05-19T16:38:07.688Z,90.19
2023-05-19T16:40:34.909Z,90.73
2023-05-19T16:43:02.231Z,90.82
2023-05-19T16:45:29.027Z,91.21
2023-05-19T16:47:56.065Z,91.63
2023-05-19T16:50:22.947Z,91.20
2023-05-19T16:52:49.889Z,91.92
2023-05-19T16:55:19.820Z,92.27
2023-05-19T16:57:47.169Z,91.81
2023-05-19T17:00:14.914Z,92.33
2023-05-19T17:02:42.113Z,92.90
2023-05-19T17:05:09.532Z,92.66
2023-05-19T17:07:36.508Z,93.00
2023-05-19T17:10:04.563Z,92.90
2023-05-19T17:12:31.457Z,93.26
2023-05-19T17:14:58.192Z,93.52
2023-05-19T17:17:25.199Z,93.59
2023-05-19T17:19:52.152Z,93.68
2023-05-19T17:22:19.366Z,93.72
2023-05-19T17:24:46.397Z,93.71
2023-05-19T17:27:13.372Z,93.79
2023-05-19T17:29:40.230Z,93.42
2023-05-19T17:32:07.372Z,93.34
2023-05-19T17:34:35.617Z,93.18
2023-05-19T17:37:02.518Z,92.72
2023-05-19T17:39:29.309Z,92.61
2023-05-19T17:41:56.397Z,92.51
2023-05-19T17:44:23.120Z,92.36
2023-05-19T17:46:50.005Z,92.23
2023-05-19T17:49:16.909Z,92.62
2023-05-19T17:51:44.069Z,91.89
2023-05-19T17:54:11.508Z,90.86
2023-05-19T17:56:42.392Z,91.40
2023-05-19T17:59:09.814Z,90.69
2023-05-19T18:01:36.981Z,90.18
2023-05-19T18:04:04.446Z,90.59
2023-05-19T18:06:32.371Z,90.64
2023-05-19T18:09:01.390Z,91.56
2023-05-19T18:11:28.530Z,91.06
2023-05-19T18:13:55.677Z,91.30
2023-05-19T18:16:26.002Z,91.57
2023-05-19T18:18:52.909Z,91.74
2023-05-19T18:21:19.850Z,91.58
2023-05-19T18:23:48.127Z,92.05
2023-05-19T18:26:15.361Z,92.49
2023-05-19T18:28:44.924Z,92.61
2023-05-19T18:31:17.497Z,89.61
2023-05-19T18:33:45.418Z,91.43
2023-05-19T18:36:13.534Z,90.79
2023-05-19T18:38:41.370Z,89.84
2023-05-19T18:41:09.891Z,88.18
2023-05-19T18:43:36.774Z,88.87
2023-05-19T18:46:04.561Z,89.41
2023-05-19T18:48:33.615Z,90.12
2023-05-19T18:51:01.350Z,90.36
2023-05-19T18:53:29.003Z,90.51
2023-05-19T18:55:56.108Z,89.39
2023-05-19T18:58:26.087Z,89.47
2023-05-19T19:00:56.236Z,89.99
2023-05-19T19:03:23.222Z,91.08
2023-05-19T19:05:56.999Z,91.29
2023-05-19T19:08:24.466Z,91.44
2023-05-19T19:10:52.165Z,91.68
2023-05-19T19:13:19.288Z,90.91
2023-05-19T19:15:46.726Z,91.46
2023-05-19T19:18:13.971Z,91.42
2023-05-19T19:20:41.136Z,90.90
2023-05-19T19:23:08.248Z,90.40
2023-05-19T19:25:35.843Z,90.82
2023-05-19T19:28:03.342Z,91.27
2023-05-19T19:30:30.330Z,91.62
2023-05-19T19:32:57.407Z,91.08
2023-05-19T19:35:24.950Z,91.17
2023-05-19T19:37:51.852Z,90.83
2023-05-19T19:40:18.959Z,91.61
2023-05-19T19:42:46.131Z,91.06
2023-05-19T19:45:15.580Z,91.11
2023-05-19T19:47:42.809Z,90.83
2023-05-19T19:50:10.786Z,89.49
2023-05-19T19:52:37.788Z,88.95
2023-05-19T19:55:09.247Z,89.35
2023-05-19T19:57:36.940Z,90.04
2023-05-19T20:00:08.341Z,90.49
2023-05-19T20:02:40.992Z,90.53
2023-05-19T20:05:12.605Z,90.36
2023-05-19T20:07:39.388Z,90.65
2023-05-19T20:10:06.748Z,90.70
2023-05-19T20:12:33.652Z,90.69
2023-05-19T20:15:00.549Z,90.70
2023-05-19T20:17:27.355Z,90.13
2023-05-19T20:19:54.241Z,90.15
2023-05-19T20:22:21.173Z,90.05
2023-05-19T20:24:48.942Z,88.80
2023-05-19T20:27:15.712Z,89.87
2023-05-19T20:29:42.578Z,89.76
2023-05-19T20:32:09.702Z,89.64
2023-05-19T20:34:36.667Z,89.49
2023-05-19T20:37:03.612Z,89.00
2023-05-19T20:39:31.459Z,89.72
2023-05-19T20:41:58.346Z,90.22
2023-05-19T20:44:25.174Z,89.96
2023-05-19T20:46:52.161Z,90.37
2023-05-19T20:49:19.387Z,90.47
2023-05-19T20:51:46.305Z,90.88
2023-05-19T20:54:13.256Z,90.99
2023-05-19T20:56:40.071Z,90.64
2023-05-19T20:59:06.900Z,90.17
2023-05-19T21:01:33.896Z,90.42
2023-05-19T21:04:01.037Z,90.29
2023-05-19T21:06:27.917Z,90.49
2023-05-19T21:08:55.096Z,89.34
2023-05-19T21:11:22.024Z,89.23
2023-05-19T21:13:50.190Z,88.30
2023-05-19T21:16:17.032Z,87.50
2023-05-19T21:18:44.151Z,89.06
2023-05-19T21:21:10.990Z,90.05
2023-05-19T21:23:37.717Z,90.77
2023-05-19T21:26:07.508Z,90.63
2023-05-19T21:28:34.507Z,90.35
2023-05-19T21:31:01.456Z,91.18
2023-05-19T21:33:28.307Z,91.58
2023-05-19T21:35:55.177Z,90.86
2023-05-19T21:38:24.328Z,90.67
2023-05-19T21:40:52.107Z,90.30
2023-05-19T21:43:22.291Z,90.48
2023-05-19T21:45:49.153Z,90.93
2023-05-19T21:48:16.175Z,91.06
2023-05-19T21:50:45.343Z,90.35
2023-05-19T21:53:12.103Z,90.61
2023-05-19T21:55:39.440Z,90.32
2023-05-19T21:58:06.319Z,91.14
2023-05-19T22:00:33.534Z,91.05
2023-05-19T22:03:00.790Z,91.66
2023-05-19T22:05:30.398Z,91.65
2023-05-19T22:07:57.541Z,91.69
2023-05-19T22:10:24.497Z,91.68
2023-05-19T22:12:51.368Z,91.90
2023-05-19T22:15:18.256Z,91.99
2023-05-19T22:17:45.132Z,92.50
2023-05-19T22:20:12.844Z,91.98
2023-05-19T22:22:39.753Z,91.91
2023-05-19T22:25:07.123Z,91.77
2023-05-19T22:27:33.985Z,90.83
2023-05-19T22:30:00.745Z,90.81
2023-05-19T22:32:35.452Z,91.64
2023-05-19T22:35:02.279Z,92.05
2023-05-19T22:37:29.081Z,91.93
2023-05-19T22:39:55.993Z,91.65
2023-05-19T22:42:22.780Z,91.50
2023-05-19T22:44:49.658Z,91.07
2023-05-19T22:47:16.537Z,91.90
2023-05-19T22:49:43.511Z,91.93
2023-05-19T22:52:11.208Z,92.03
2023-05-19T22:54:38.259Z,91.92
2023-05-19T22:57:08.383Z,91.39
2023-05-19T22:59:35.714Z,91.42
2023-05-19T23:02:02.558Z,91.23
2023-05-19T23:04:29.575Z,91.28
2023-05-19T23:06:56.517Z,91.20
2023-05-19T23:09:23.487Z,90.97
2023-05-19T23:11:50.357Z,91.37
2023-05-19T23:14:18.564Z,91.59
2023-05-19T23:16:45.347Z,91.92
2023-05-19T23:19:12.445Z,91.84
2023-05-19T23:21:39.443Z,92.26
2023-05-19T23:24:06.830Z,92.06
2023-05-19T23:26:33.709Z,92.05
2023-05-19T23:29:00.606Z,92.22
2023-05-19T23:31:27.456Z,92.43
2023-05-19T23:33:54.422Z,92.35
2023-05-19T23:36:21.286Z,92.13
2023-05-19T23:38:48.024Z,91.23
2023-05-19T23:41:14.900Z,91.68
2023-05-19T23:43:41.850Z,91.39
2023-05-19T23:46:08.800Z,92.00
2023-05-19T23:48:36.722Z,92.60
2023-05-19T23:51:03.767Z,92.46
2023-05-19T23:53:30.553Z,92.64
2023-05-19T23:55:58.721Z,92.91
2023-05-19T23:58:25.803Z,93.10
